Time;durP1;ratioP1;P1;durP2;ratioP2;P2;SDS_P1;SDS_P2;PMS_P1;PMS_P2;Temp;Humidity;BMP_temperature;BMP_pressure;BME280_temperature;BME280_humidity;BME280_pressure;Samples;Min_cycle;Max_cycle;Signal;HPM_P1;HPM_P2
2023/09/13 00:01:07;;;;;;;22.73;16.13;;;;;;;;;;5074061;28;20647;-71
2023/09/13 00:03:34;;;;;;;22.43;15.73;;;;;;;;;;5023179;28;20251;-71
2023/09/13 00:06:00;;;;;;;21.13;14.83;;;;;;;;;;5073342;28;20177;-71
2023/09/13 00:08:27;;;;;;;25.23;17.33;;;;;;;;;;5055310;28;20567;-71
2023/09/13 00:11:00;;;;;;;28.93;19.93;;;;;;;;;;5055731;28;20189;-71
2023/09/13 00:13:27;;;;;;;30.53;17.27;;;;;;;;;;5073526;28;20600;-71
2023/09/13 00:19:56;;;;;;;33.17;19.33;;;;;;;;;;5073290;28;20196;-71
2023/09/13 00:22:23;;;;;;;26.83;16.47;;;;;;;;;;5073118;28;20217;-71
2023/09/13 00:28:45;;;;;;;31.50;19.13;;;;;;;;;;5073192;28;20158;-71
2023/09/13 00:31:29;;;;;;;23.10;16.33;;;;;;;;;;5055905;28;20235;-72
2023/09/13 00:37:56;;;;;;;27.27;17.20;;;;;;;;;;5073367;28;20173;-71
2023/09/13 00:40:23;;;;;;;25.93;16.73;;;;;;;;;;5042458;28;20197;-71
2023/09/13 00:46:43;;;;;;;27.90;18.73;;;;;;;;;;5077035;28;20497;-71
2023/09/13 00:53:03;;;;;;;26.30;18.97;;;;;;;;;;5076530;28;20193;-71
2023/09/13 00:55:30;;;;;;;31.57;21.50;;;;;;;;;;5042140;28;20197;-71
2023/09/13 00:57:57;;;;;;;28.60;20.27;;;;;;;;;;5058752;28;20209;-72
2023/09/13 01:00:24;;;;;;;29.23;19.20;;;;;;;;;;5059063;28;20182;-71
2023/09/13 01:02:52;;;;;;;29.33;21.07;;;;;;;;;;5058942;28;20243;-72
2023/09/13 01:09:18;;;;;;;29.00;18.90;;;;;;;;;;5076194;28;20259;-71
2023/09/13 01:44:23;;;;;;;34.93;22.33;;;;;;;;;;5076268;28;20150;-71
2023/09/13 01:46:49;;;;;;;41.80;22.63;;;;;;;;;;5057950;28;20636;-71
2023/09/13 01:49:18;;;;;;;33.13;21.57;;;;;;;;;;5057903;28;20282;-71
2023/09/13 01:51:45;;;;;;;35.83;25.03;;;;;;;;;;5041328;28;20186;-72
2023/09/13 01:54:29;;;;;;;32.03;24.23;;;;;;;;;;5060614;28;20241;-71
2023/09/13 01:56:56;;;;;;;33.30;24.63;;;;;;;;;;5058261;28;20182;-71
2023/09/13 01:59:23;;;;;;;34.30;25.53;;;;;;;;;;5040989;28;20183;-72
2023/09/13 02:01:50;;;;;;;32.03;24.10;;;;;;;;;;5057490;28;20629;-71
2023/09/13 02:04:16;;;;;;;29.73;24.10;;;;;;;;;;5057620;28;20202;-71
2023/09/13 02:07:02;;;;;;;31.17;24.20;;;;;;;;;;5045888;28;20158;-72
2023/09/13 02:17:40;;;;;;;32.03;23.97;;;;;;;;;;5075370;28;20145;-71
2023/09/13 02:20:24;;;;;;;29.33;23.37;;;;;;;;;;5056968;28;20260;-71
2023/09/13 02:22:51;;;;;;;29.50;22.50;;;;;;;;;;5057352;28;20720;-72
2023/09/13 02:25:18;;;;;;;29.03;21.23;;;;;;;;;;5057161;28;20710;-71
2023/09/13 02:27:45;;;;;;;27.37;21.20;;;;;;;;;;5040932;28;20372;-72
2023/09/13 02:30:12;;;;;;;29.50;21.57;;;;;;;;;;5057245;28;20197;-72
2023/09/13 02:32:38;;;;;;;27.40;20.47;;;;;;;;;;5057003;28;20217;-72
2023/09/13 02:35:05;;;;;;;39.53;25.63;;;;;;;;;;5056922;28;20293;-72
2023/09/13 02:41:31;;;;;;;44.93;26.13;;;;;;;;;;5074504;28;20624;-72
2023/09/13 02:47:58;;;;;;;37.73;24.17;;;;;;;;;;5074605;28;20146;-72
2023/09/13 02:50:25;;;;;;;38.67;24.60;;;;;;;;;;5056570;28;20221;-71
2023/09/13 02:52:52;;;;;;;33.83;23.57;;;;;;;;;;5056513;28;20226;-71
2023/09/13 02:55:19;;;;;;;38.70;23.40;;;;;;;;;;5041015;28;20200;-71
2023/09/13 02:57:45;;;;;;;46.70;27.07;;;;;;;;;;5075162;28;20493;-71
2023/09/13 03:00:13;;;;;;;47.07;25.37;;;;;;;;;;5074836;28;20544;-74
2023/09/13 03:02:41;;;;;;;46.40;26.60;;;;;;;;;;5056209;28;20505;-74
2023/09/13 03:05:08;;;;;;;42.03;26.43;;;;;;;;;;5040132;28;20257;-74
2023/09/13 03:07:35;;;;;;;48.93;25.73;;;;;;;;;;5039764;28;20272;-74
2023/09/13 03:10:02;;;;;;;40.60;24.73;;;;;;;;;;5056374;28;20190;-74
2023/09/13 03:12:29;;;;;;;35.80;25.00;;;;;;;;;;5039920;28;20685;-74
2023/09/13 03:14:56;;;;;;;44.83;25.83;;;;;;;;;;5056324;28;20221;-74
2023/09/13 03:17:23;;;;;;;43.93;26.23;;;;;;;;;;5056776;28;20186;-74
2023/09/13 03:19:51;;;;;;;62.50;26.17;;;;;;;;;;5051631;28;20191;-73
2023/09/13 03:22:18;;;;;;;43.40;24.83;;;;;;;;;;5036181;28;20194;-74
2023/09/13 03:24:46;;;;;;;36.13;24.00;;;;;;;;;;5036188;28;20197;-74
2023/09/13 03:27:13;;;;;;;53.87;23.33;;;;;;;;;;5036143;28;20217;-74
2023/09/13 03:29:58;;;;;;;115.10;26.50;;;;;;;;;;5039229;28;20179;-74
2023/09/13 03:32:26;;;;;;;39.47;23.73;;;;;;;;;;5052302;28;20281;-73
2023/09/13 03:35:11;;;;;;;33.73;23.20;;;;;;;;;;5038998;28;20486;-73
2023/09/13 03:37:38;;;;;;;33.67;22.83;;;;;;;;;;5036334;28;20191;-74
2023/09/13 03:40:05;;;;;;;35.23;23.03;;;;;;;;;;5045132;28;20281;-72
2023/09/13 03:42:34;;;;;;;30.53;21.37;;;;;;;;;;5073543;28;20189;-71
2023/09/13 03:45:01;;;;;;;38.47;19.30;;;;;;;;;;5039367;28;20190;-72
2023/09/13 03:47:30;;;;;;;27.07;19.40;;;;;;;;;;5056526;28;20220;-75
2023/09/13 03:53:58;;;;;;;27.63;20.57;;;;;;;;;;5074652;28;20533;-76
2023/09/13 03:56:25;;;;;;;30.70;21.27;;;;;;;;;;5055943;28;20583;-74
2023/09/13 04:02:47;;;;;;;34.70;23.10;;;;;;;;;;5074219;28;20225;-72
2023/09/13 04:09:10;;;;;;;63.70;21.50;;;;;;;;;;5074201;28;20150;-74
2023/09/13 04:11:39;;;;;;;72.03;21.33;;;;;;;;;;5039954;28;20189;-74
2023/09/13 04:14:07;;;;;;;29.87;20.37;;;;;;;;;;5078404;28;20198;-74
2023/09/13 04:16:34;;;;;;;33.67;21.70;;;;;;;;;;5061254;28;20206;-73
2023/09/13 04:19:01;;;;;;;26.33;18.53;;;;;;;;;;5044612;28;20206;-74
2023/09/13 04:21:28;;;;;;;31.43;20.10;;;;;;;;;;5060495;28;20716;-71
2023/09/13 04:23:58;;;;;;;78.73;20.60;;;;;;;;;;5043749;28;20209;-72
2023/09/13 04:26:26;;;;;;;76.03;19.80;;;;;;;;;;5076687;28;20216;-74
2023/09/13 04:28:53;;;;;;;31.10;19.10;;;;;;;;;;5059755;28;20533;-74
2023/09/13 04:31:21;;;;;;;24.50;18.67;;;;;;;;;;5044106;28;20206;-72
2023/09/13 04:33:49;;;;;;;26.53;17.50;;;;;;;;;;5059824;28;20230;-75
2023/09/13 04:36:33;;;;;;;34.33;19.10;;;;;;;;;;5045574;28;20194;-74
2023/09/13 04:39:03;;;;;;;29.60;19.70;;;;;;;;;;5045707;28;20171;-76
2023/09/13 04:45:32;;;;;;;23.80;17.23;;;;;;;;;;5077480;28;20650;-72
2023/09/13 04:52:03;;;;;;;27.57;17.23;;;;;;;;;;5077312;28;20164;-72
2023/09/13 04:54:32;;;;;;;21.73;18.33;;;;;;;;;;5076372;28;20217;-74
2023/09/13 05:00:54;;;;;;;29.43;17.00;;;;;;;;;;5077116;28;20157;-73
2023/09/13 05:03:22;;;;;;;23.50;17.97;;;;;;;;;;5075958;28;20198;-73
2023/09/13 05:05:52;;;;;;;26.97;17.50;;;;;;;;;;5059642;28;20194;-73
2023/09/13 05:08:21;;;;;;;28.93;18.27;;;;;;;;;;5059633;28;20182;-74
2023/09/13 05:18:57;;;;;;;31.57;16.80;;;;;;;;;;5076685;28;20161;-73
2023/09/13 05:21:24;;;;;;;19.73;17.03;;;;;;;;;;5076176;28;20186;-72
2023/09/13 05:27:46;;;;;;;23.03;15.80;;;;;;;;;;5076575;28;20165;-71
2023/09/13 05:34:25;;;;;;;19.80;16.47;;;;;;;;;;5076597;28;20202;-70
2023/09/13 05:40:54;;;;;;;21.67;15.80;;;;;;;;;;5076523;28;20193;-72
2023/09/13 05:43:21;;;;;;;21.63;15.87;;;;;;;;;;5041911;28;20186;-70
2023/09/13 05:49:48;;;;;;;21.87;15.30;;;;;;;;;;5076269;28;20149;-70
2023/09/13 05:56:16;;;;;;;20.10;15.20;;;;;;;;;;5076406;28;20200;-73
2023/09/13 06:02:44;;;;;;;18.63;14.47;;;;;;;;;;5075799;28;20154;-72
2023/09/13 06:05:15;;;;;;;17.43;13.90;;;;;;;;;;5074589;28;20194;-69
2023/09/13 06:07:50;;;;;;;17.57;13.80;;;;;;;;;;5041870;28;20220;-71
2023/09/13 06:10:18;;;;;;;17.23;14.00;;;;;;;;;;5076118;28;20517;-71
2023/09/13 06:16:47;;;;;;;16.33;14.17;;;;;;;;;;5075193;28;20616;-75
2023/09/13 06:19:15;;;;;;;16.27;14.37;;;;;;;;;;5057255;28;20656;-72
2023/09/13 06:25:43;;;;;;;17.80;14.47;;;;;;;;;;5076511;28;20297;-75
2023/09/13 06:32:10;;;;;;;16.37;14.60;;;;;;;;;;5075625;28;20157;-72
2023/09/13 06:38:57;;;;;;;17.47;15.50;;;;;;;;;;5075301;28;20503;-74
2023/09/13 06:45:24;;;;;;;16.97;15.17;;;;;;;;;;5075328;28;20156;-72
2023/09/13 06:52:13;;;;;;;19.70;15.93;;;;;;;;;;5075516;28;20141;-73
2023/09/13 06:54:42;;;;;;;21.80;16.63;;;;;;;;;;5040441;28;20205;-72
2023/09/13 07:01:09;;;;;;;20.50;16.90;;;;;;;;;;5074682;28;20180;-73
2023/09/13 07:07:56;;;;;;;23.77;19.63;;;;;;;;;;5074571;28;20166;-73
2023/09/13 07:10:25;;;;;;;21.03;17.23;;;;;;;;;;5056847;28;20190;-74
2023/09/13 07:12:57;;;;;;;22.57;17.97;;;;;;;;;;5040259;28;20208;-73
2023/09/13 07:15:32;;;;;;;25.63;19.20;;;;;;;;;;5051684;28;20229;-73
2023/09/13 07:22:03;;;;;;;24.93;20.53;;;;;;;;;;5074417;28;20161;-73
2023/09/13 07:28:31;;;;;;;31.17;23.87;;;;;;;;;;5074670;28;20528;-74
2023/09/13 07:34:58;;;;;;;31.87;23.90;;;;;;;;;;5074296;28;20251;-74
2023/09/13 07:41:26;;;;;;;47.40;29.47;;;;;;;;;;5074395;28;20203;-74
2023/09/13 07:43:56;;;;;;;44.57;27.20;;;;;;;;;;5074216;28;20182;-73
2023/09/13 07:46:28;;;;;;;51.90;32.80;;;;;;;;;;5056934;28;20281;-72
2023/09/13 07:48:57;;;;;;;54.67;33.83;;;;;;;;;;5055604;28;20204;-72
2023/09/13 07:55:25;;;;;;;65.00;35.47;;;;;;;;;;5074139;28;20720;-72
2023/09/13 08:01:53;;;;;;;60.20;33.77;;;;;;;;;;5074671;28;20160;-74
2023/09/13 08:04:21;;;;;;;60.43;34.37;;;;;;;;;;5056771;28;20257;-72
2023/09/13 08:06:53;;;;;;;62.23;35.93;;;;;;;;;;5041043;28;20510;-74
2023/09/13 08:09:30;;;;;;;61.73;34.10;;;;;;;;;;5072775;28;20182;-73
2023/09/13 08:16:19;;;;;;;43.97;29.70;;;;;;;;;;5073734;28;20252;-73
2023/09/13 08:18:51;;;;;;;45.77;28.53;;;;;;;;;;5056536;28;20174;-74
2023/09/13 08:21:18;;;;;;;42.30;27.47;;;;;;;;;;5055837;28;20193;-73
2023/09/13 08:23:45;;;;;;;41.67;26.97;;;;;;;;;;5073803;28;20243;-73
2023/09/13 08:26:30;;;;;;;38.90;25.00;;;;;;;;;;5073812;28;20575;-74
2023/09/13 08:28:57;;;;;;;37.60;24.13;;;;;;;;;;5073808;28;20198;-74
2023/09/13 08:31:42;;;;;;;37.93;23.60;;;;;;;;;;5058713;28;20152;-74
2023/09/13 08:34:10;;;;;;;38.10;23.77;;;;;;;;;;5055970;28;20197;-73
2023/09/13 08:36:57;;;;;;;36.93;23.70;;;;;;;;;;5073181;28;20635;-73
2023/09/13 08:39:27;;;;;;;33.60;23.60;;;;;;;;;;5039541;28;20228;-73
2023/09/13 08:41:55;;;;;;;30.57;22.03;;;;;;;;;;5056237;28;20560;-74
2023/09/13 08:44:22;;;;;;;35.20;24.20;;;;;;;;;;5047626;28;20660;-73
2023/09/13 08:46:49;;;;;;;34.23;22.40;;;;;;;;;;5039489;28;20190;-73
2023/09/13 08:49:17;;;;;;;34.33;21.10;;;;;;;;;;5055332;28;20203;-74
2023/09/13 08:51:44;;;;;;;27.50;20.23;;;;;;;;;;5055599;28;20254;-74
2023/09/13 08:54:14;;;;;;;28.53;20.67;;;;;;;;;;5039222;28;20213;-73
2023/09/13 09:00:51;;;;;;;31.57;20.97;;;;;;;;;;5076407;28;20157;-72
2023/09/13 09:03:21;;;;;;;30.30;21.30;;;;;;;;;;5035859;28;20606;-72
2023/09/13 09:05:49;;;;;;;26.20;19.57;;;;;;;;;;5059191;28;20187;-72
2023/09/13 09:12:13;;;;;;;28.60;17.63;;;;;;;;;;5056908;28;20206;-73
2023/09/13 09:14:43;;;;;;;27.10;16.17;;;;;;;;;;5055260;28;20225;-73
2023/09/13 09:17:28;;;;;;;28.00;17.73;;;;;;;;;;5048979;28;20615;-73
2023/09/13 09:23:56;;;;;;;25.40;15.67;;;;;;;;;;5056624;28;20226;-73
2023/09/13 09:30:31;;;;;;;24.57;15.70;;;;;;;;;;5056662;28;20704;-73
2023/09/13 09:33:03;;;;;;;20.00;14.00;;;;;;;;;;5023402;28;20243;-73
2023/09/13 09:35:31;;;;;;;18.03;13.83;;;;;;;;;;5038355;28;20224;-73
2023/09/13 09:38:01;;;;;;;17.90;14.33;;;;;;;;;;5038709;28;20647;-72
2023/09/13 09:40:38;;;;;;;18.83;14.00;;;;;;;;;;5024032;28;20183;-73
2023/09/13 09:47:20;;;;;;;16.30;12.10;;;;;;;;;;5056428;28;20177;-73
2023/09/13 09:49:52;;;;;;;16.37;11.57;;;;;;;;;;5039114;28;20179;-72
2023/09/13 09:52:25;;;;;;;15.80;11.90;;;;;;;;;;5056659;28;20232;-72
2023/09/13 09:54:59;;;;;;;16.87;11.30;;;;;;;;;;5022932;28;20202;-72
2023/09/13 09:57:33;;;;;;;17.10;11.50;;;;;;;;;;5044512;28;20190;-72
2023/09/13 10:00:07;;;;;;;15.27;10.67;;;;;;;;;;5039546;28;20518;-72
2023/09/13 10:02:38;;;;;;;17.23;12.07;;;;;;;;;;5055128;28;20519;-72
2023/09/13 10:05:18;;;;;;;15.93;11.80;;;;;;;;;;5039146;28;20256;-73
2023/09/13 10:07:57;;;;;;;14.67;11.90;;;;;;;;;;5037958;28;20202;-72
2023/09/13 10:10:35;;;;;;;14.17;11.47;;;;;;;;;;5038862;28;20159;-72
2023/09/13 10:13:07;;;;;;;14.33;11.43;;;;;;;;;;5038139;28;20190;-72
2023/09/13 10:15:39;;;;;;;14.60;11.10;;;;;;;;;;5055875;28;20328;-72
2023/09/13 10:18:12;;;;;;;13.53;11.77;;;;;;;;;;5054619;28;20253;-72
2023/09/13 10:20:42;;;;;;;17.07;12.60;;;;;;;;;;5038461;28;20248;-72
2023/09/13 10:23:12;;;;;;;14.07;12.07;;;;;;;;;;5055812;28;20568;-72
2023/09/13 10:25:44;;;;;;;17.73;12.17;;;;;;;;;;5022029;28;20275;-72
2023/09/13 10:28:18;;;;;;;17.00;12.87;;;;;;;;;;5038971;28;20584;-73
2023/09/13 10:30:56;;;;;;;15.53;12.67;;;;;;;;;;5039583;28;20540;-72
2023/09/13 10:33:31;;;;;;;17.23;12.40;;;;;;;;;;5035271;28;20187;-72
2023/09/13 10:36:27;;;;;;;16.00;14.30;;;;;;;;;;5046930;28;20171;-73
2023/09/13 10:39:27;;;;;;;19.87;14.07;;;;;;;;;;5059371;28;20524;-73
2023/09/13 10:45:50;;;;;;;16.40;12.67;;;;;;;;;;5075287;28;20157;-72
2023/09/13 10:48:22;;;;;;;18.10;13.60;;;;;;;;;;5075837;28;20195;-73
2023/09/13 10:50:51;;;;;;;18.07;14.53;;;;;;;;;;5057683;28;20195;-72
2023/09/13 10:53:21;;;;;;;17.67;12.93;;;;;;;;;;5041253;28;20191;-72
2023/09/13 10:59:52;;;;;;;18.50;14.13;;;;;;;;;;5055211;28;20205;-72
2023/09/13 11:02:28;;;;;;;17.87;13.73;;;;;;;;;;5038620;28;20627;-73
2023/09/13 11:05:01;;;;;;;18.37;12.80;;;;;;;;;;5054956;28;20179;-73
2023/09/13 11:07:33;;;;;;;16.70;14.00;;;;;;;;;;5021335;28;20530;-73
2023/09/13 11:13:58;;;;;;;21.33;13.37;;;;;;;;;;5055202;28;20598;-73
2023/09/13 11:16:28;;;;;;;16.20;12.77;;;;;;;;;;5020904;28;20257;-73
2023/09/13 11:19:03;;;;;;;20.07;13.60;;;;;;;;;;5037284;28;20193;-72
2023/09/13 11:21:45;;;;;;;18.00;13.17;;;;;;;;;;5021531;28;20193;-72
2023/09/13 11:24:33;;;;;;;21.13;13.67;;;;;;;;;;5004567;28;20193;-74
2023/09/13 11:27:29;;;;;;;17.03;13.53;;;;;;;;;;5037555;28;20698;-72
2023/09/13 11:33:51;;;;;;;18.80;13.23;;;;;;;;;;5054464;28;20150;-73
2023/09/13 11:36:27;;;;;;;20.67;12.47;;;;;;;;;;5030696;28;20236;-73
2023/09/13 11:39:14;;;;;;;15.63;13.07;;;;;;;;;;5037358;28;20171;-73
2023/09/13 11:41:45;;;;;;;20.67;13.33;;;;;;;;;;5036942;28;20289;-72
2023/09/13 11:44:22;;;;;;;20.00;13.67;;;;;;;;;;5037371;28;20187;-73
2023/09/13 11:47:02;;;;;;;16.10;13.60;;;;;;;;;;5036037;28;20190;-73
2023/09/13 11:49:33;;;;;;;18.40;13.13;;;;;;;;;;5036613;28;20545;-73
2023/09/13 11:52:06;;;;;;;18.03;12.97;;;;;;;;;;5037356;28;20241;-72
2023/09/13 11:54:57;;;;;;;16.20;13.00;;;;;;;;;;5037367;28;20649;-73
2023/09/13 12:01:30;;;;;;;16.40;13.13;;;;;;;;;;5054111;28;20208;-73
2023/09/13 12:04:03;;;;;;;16.37;12.70;;;;;;;;;;5036823;28;20506;-71
2023/09/13 12:06:49;;;;;;;17.60;13.47;;;;;;;;;;5054444;28;20157;-72
2023/09/13 12:09:21;;;;;;;20.00;13.60;;;;;;;;;;5036575;28;20187;-72
2023/09/13 12:11:56;;;;;;;21.23;12.73;;;;;;;;;;5020622;28;20197;-71
2023/09/13 12:14:34;;;;;;;14.47;12.23;;;;;;;;;;5053785;28;20190;-72
2023/09/13 12:17:06;;;;;;;17.93;11.90;;;;;;;;;;5018148;28;20230;-72
2023/09/13 12:19:37;;;;;;;16.13;12.30;;;;;;;;;;5016961;28;20186;-72
2023/09/13 12:22:05;;;;;;;15.60;11.53;;;;;;;;;;5034522;28;20692;-72
2023/09/13 12:24:32;;;;;;;17.97;10.83;;;;;;;;;;5017047;28;20197;-72
2023/09/13 12:27:01;;;;;;;16.60;11.10;;;;;;;;;;5016763;28;20176;-72
2023/09/13 12:29:34;;;;;;;10.20;8.47;;;;;;;;;;5000623;28;20618;-72
2023/09/13 12:32:04;;;;;;;10.83;8.40;;;;;;;;;;5017213;28;20202;-72
2023/09/13 12:34:35;;;;;;;10.50;8.70;;;;;;;;;;5019065;28;20231;-72
2023/09/13 12:37:04;;;;;;;13.80;8.80;;;;;;;;;;5020579;28;20190;-72
2023/09/13 12:39:34;;;;;;;11.90;8.37;;;;;;;;;;5021374;28;20175;-73
2023/09/13 12:42:10;;;;;;;9.77;7.97;;;;;;;;;;5021860;28;20191;-72
2023/09/13 12:44:38;;;;;;;10.60;7.30;;;;;;;;;;5020924;28;20192;-72
2023/09/13 12:47:07;;;;;;;9.43;7.60;;;;;;;;;;5037648;28;20191;-72
2023/09/13 12:49:40;;;;;;;8.87;6.47;;;;;;;;;;5038212;28;20237;-72
2023/09/13 12:52:10;;;;;;;7.23;6.17;;;;;;;;;;5020075;28;20241;-72
2023/09/13 12:54:39;;;;;;;10.83;6.00;;;;;;;;;;5003785;28;20203;-73
2023/09/13 12:57:09;;;;;;;7.77;6.00;;;;;;;;;;5020146;28;20278;-73
2023/09/13 12:59:43;;;;;;;9.30;5.80;;;;;;;;;;5020043;28;20643;-73
2023/09/13 13:02:16;;;;;;;6.63;5.00;;;;;;;;;;5020051;28;20226;-72
2023/09/13 13:04:47;;;;;;;10.30;5.10;;;;;;;;;;5022081;28;20206;-72
2023/09/13 13:11:15;;;;;;;9.07;4.90;;;;;;;;;;5037207;28;20611;-73
2023/09/13 13:13:45;;;;;;;7.30;5.00;;;;;;;;;;5003714;28;20191;-73
2023/09/13 13:16:19;;;;;;;5.60;5.10;;;;;;;;;;5047549;28;20226;-76
2023/09/13 13:19:06;;;;;;;8.87;5.33;;;;;;;;;;5012577;28;20285;-73
2023/09/13 13:21:53;;;;;;;7.10;5.67;;;;;;;;;;5027496;28;20286;-74
2023/09/13 13:24:25;;;;;;;9.73;5.90;;;;;;;;;;5016297;28;20194;-74
2023/09/13 13:26:56;;;;;;;8.87;6.20;;;;;;;;;;5039602;28;20589;-74
2023/09/13 13:29:26;;;;;;;9.83;6.80;;;;;;;;;;5023809;28;20198;-74
2023/09/13 13:32:12;;;;;;;8.33;6.67;;;;;;;;;;5042866;28;20181;-73
2023/09/13 13:34:39;;;;;;;9.47;7.47;;;;;;;;;;5022957;28;20301;-73
2023/09/13 13:37:11;;;;;;;11.17;7.57;;;;;;;;;;5023848;28;20286;-73
2023/09/13 13:39:39;;;;;;;11.80;7.03;;;;;;;;;;5039378;28;20182;-73
2023/09/13 13:42:08;;;;;;;10.13;7.17;;;;;;;;;;5056699;28;20228;-72
2023/09/13 13:44:40;;;;;;;9.70;7.23;;;;;;;;;;5022750;28;20229;-73
2023/09/13 13:47:11;;;;;;;8.67;7.03;;;;;;;;;;5054931;28;20190;-73
2023/09/13 13:49:40;;;;;;;11.37;7.80;;;;;;;;;;5040588;28;20199;-72
2023/09/13 13:52:08;;;;;;;7.27;6.23;;;;;;;;;;5076362;28;20186;-72
2023/09/13 13:54:38;;;;;;;8.80;6.40;;;;;;;;;;5058618;28;20190;-73
2023/09/13 13:57:23;;;;;;;7.80;6.50;;;;;;;;;;5060874;28;20180;-73
2023/09/13 13:59:50;;;;;;;7.90;5.97;;;;;;;;;;5058306;28;20190;-73
2023/09/13 14:02:22;;;;;;;8.80;6.40;;;;;;;;;;5075806;28;20174;-74
2023/09/13 14:04:50;;;;;;;8.50;6.20;;;;;;;;;;5058609;28;20182;-74
2023/09/13 14:07:20;;;;;;;7.23;5.70;;;;;;;;;;5053565;28;20632;-73
2023/09/13 14:09:49;;;;;;;9.27;6.10;;;;;;;;;;5050656;28;20185;-73
2023/09/13 14:12:17;;;;;;;7.00;5.83;;;;;;;;;;5041327;28;20221;-73
2023/09/13 14:14:44;;;;;;;7.23;6.47;;;;;;;;;;5057860;28;20221;-73
2023/09/13 14:17:21;;;;;;;6.40;5.80;;;;;;;;;;5041983;28;20219;-73
2023/09/13 14:19:58;;;;;;;7.20;5.90;;;;;;;;;;5076573;28;20166;-73
2023/09/13 14:22:44;;;;;;;9.10;6.43;;;;;;;;;;5061194;28;20166;-73
2023/09/13 14:25:12;;;;;;;7.90;6.87;;;;;;;;;;5041319;28;20190;-73
2023/09/13 14:27:39;;;;;;;8.00;6.80;;;;;;;;;;5075095;28;20584;-73
2023/09/13 14:30:26;;;;;;;7.63;5.80;;;;;;;;;;5074633;28;20163;-73
2023/09/13 14:33:12;;;;;;;7.93;6.17;;;;;;;;;;5057599;28;20177;-73
2023/09/13 14:35:41;;;;;;;7.83;6.77;;;;;;;;;;5057935;28;20275;-73
2023/09/13 14:38:17;;;;;;;6.70;6.00;;;;;;;;;;5059869;28;20194;-72
2023/09/13 14:40:47;;;;;;;8.40;6.10;;;;;;;;;;5058227;28;20569;-72
2023/09/13 14:43:20;;;;;;;8.27;5.87;;;;;;;;;;5074873;28;20509;-73
2023/09/13 14:45:50;;;;;;;8.83;5.67;;;;;;;;;;5058053;28;20224;-73
2023/09/13 14:48:18;;;;;;;8.30;5.60;;;;;;;;;;5041033;28;20537;-72
2023/09/13 14:50:48;;;;;;;7.77;6.50;;;;;;;;;;5041107;28;20536;-72
2023/09/13 14:53:17;;;;;;;7.90;5.90;;;;;;;;;;5040704;28;20209;-73
2023/09/13 14:55:45;;;;;;;9.17;6.20;;;;;;;;;;5040896;28;20234;-72
2023/09/13 14:58:12;;;;;;;8.87;5.87;;;;;;;;;;5039522;28;20192;-73
2023/09/13 15:00:39;;;;;;;6.97;5.57;;;;;;;;;;5073778;28;20186;-72
2023/09/13 15:03:08;;;;;;;10.70;7.00;;;;;;;;;;5074258;28;20177;-72
2023/09/13 15:05:35;;;;;;;8.53;6.30;;;;;;;;;;5056975;28;20197;-72
2023/09/13 15:08:02;;;;;;;8.60;6.43;;;;;;;;;;5075135;28;20178;-73
2023/09/13 15:10:31;;;;;;;8.33;5.90;;;;;;;;;;5074031;28;20202;-73
2023/09/13 15:12:58;;;;;;;8.13;6.33;;;;;;;;;;5075246;28;20269;-72
2023/09/13 15:15:26;;;;;;;10.73;5.87;;;;;;;;;;5072886;28;20225;-72
2023/09/13 15:18:10;;;;;;;7.57;5.93;;;;;;;;;;5059351;28;20166;-72
2023/09/13 15:20:38;;;;;;;7.07;5.80;;;;;;;;;;5075243;28;20182;-72
2023/09/13 15:23:23;;;;;;;8.13;6.33;;;;;;;;;;5074811;28;20170;-72
2023/09/13 15:25:50;;;;;;;8.37;6.60;;;;;;;;;;5075139;28;20185;-73
2023/09/13 15:28:20;;;;;;;8.90;6.00;;;;;;;;;;5074636;28;20213;-72
2023/09/13 15:30:51;;;;;;;6.50;5.80;;;;;;;;;;5057706;28;20200;-73
2023/09/13 15:33:19;;;;;;;8.50;6.47;;;;;;;;;;5073123;28;20182;-72
2023/09/13 15:35:54;;;;;;;9.40;6.00;;;;;;;;;;5040906;28;20255;-73
2023/09/13 15:38:25;;;;;;;10.43;6.10;;;;;;;;;;5058060;28;20193;-72
2023/09/13 15:44:58;;;;;;;7.37;6.10;;;;;;;;;;5074389;28;20608;-73
2023/09/13 15:47:26;;;;;;;8.13;6.00;;;;;;;;;;5039843;28;20268;-73
2023/09/13 15:53:48;;;;;;;7.43;5.87;;;;;;;;;;5074234;28;20149;-72
2023/09/13 15:56:19;;;;;;;9.23;6.00;;;;;;;;;;5056558;28;20686;-73
2023/09/13 15:58:46;;;;;;;8.57;6.20;;;;;;;;;;5057010;28;20632;-73
2023/09/13 16:01:13;;;;;;;9.07;6.17;;;;;;;;;;5056032;28;20248;-73
2023/09/13 16:03:40;;;;;;;8.83;6.20;;;;;;;;;;5073738;28;20182;-73
2023/09/13 16:06:08;;;;;;;9.80;6.50;;;;;;;;;;5039672;28;20194;-73
2023/09/13 16:08:35;;;;;;;9.00;7.10;;;;;;;;;;5057209;28;20182;-73
2023/09/13 16:11:02;;;;;;;8.63;6.47;;;;;;;;;;5060091;28;20289;-73
2023/09/13 16:17:29;;;;;;;5.43;4.20;;;;;;;;;;5077441;28;20682;-73
2023/09/13 16:23:55;;;;;;;3.90;3.20;;;;;;;;;;5077873;28;20160;-73
2023/09/13 16:26:25;;;;;;;5.47;3.27;;;;;;;;;;5060467;28;20198;-73
2023/09/13 16:32:45;;;;;;;3.70;3.13;;;;;;;;;;5078141;28;20260;-73
2023/09/13 16:35:31;;;;;;;2.90;2.60;;;;;;;;;;5063274;28;20265;-73
2023/09/13 16:42:02;;;;;;;4.00;3.50;;;;;;;;;;5077635;28;20164;-73
2023/09/13 16:44:34;;;;;;;3.60;3.10;;;;;;;;;;5061096;28;20256;-72
2023/09/13 16:51:06;;;;;;;4.47;4.00;;;;;;;;;;5078078;28;20149;-73
2023/09/13 16:53:52;;;;;;;4.40;3.97;;;;;;;;;;5077290;28;20150;-72
2023/09/13 16:56:20;;;;;;;5.77;3.63;;;;;;;;;;5076605;28;20217;-74
2023/09/13 17:02:44;;;;;;;6.47;4.00;;;;;;;;;;5078676;28;20556;-74
2023/09/13 17:09:14;;;;;;;6.77;4.70;;;;;;;;;;5059033;28;20185;-75
2023/09/13 17:11:47;;;;;;;7.73;4.77;;;;;;;;;;5025146;28;20268;-75
2023/09/13 17:14:18;;;;;;;8.60;5.47;;;;;;;;;;5024667;28;20286;-75
2023/09/13 17:21:00;;;;;;;7.77;5.50;;;;;;;;;;5070238;28;20323;-74
2023/09/13 17:27:26;;;;;;;7.67;5.10;;;;;;;;;;5076472;28;20557;-74
2023/09/13 17:29:53;;;;;;;8.67;5.90;;;;;;;;;;5042467;28;20198;-74
2023/09/13 17:32:20;;;;;;;6.80;5.73;;;;;;;;;;5059242;28;20194;-74
2023/09/13 17:38:49;;;;;;;8.47;6.20;;;;;;;;;;5076550;28;20177;-74
2023/09/13 17:41:16;;;;;;;9.03;6.23;;;;;;;;;;5058475;28;20285;-74
2023/09/13 17:43:47;;;;;;;8.43;6.67;;;;;;;;;;5042381;28;20186;-74
2023/09/13 17:46:17;;;;;;;9.90;7.67;;;;;;;;;;5034050;28;20245;-75
2023/09/13 17:48:47;;;;;;;9.13;7.80;;;;;;;;;;5055781;28;20656;-74
2023/09/13 17:51:15;;;;;;;11.10;8.40;;;;;;;;;;5022285;28;20194;-74
2023/09/13 17:53:46;;;;;;;12.23;10.00;;;;;;;;;;5056131;28;20194;-74
2023/09/13 17:56:18;;;;;;;11.50;8.70;;;;;;;;;;5039701;28;20191;-74
2023/09/13 17:58:46;;;;;;;12.23;9.37;;;;;;;;;;5038600;28;20281;-74
2023/09/13 18:01:13;;;;;;;13.10;9.80;;;;;;;;;;5055948;28;20186;-74
2023/09/13 18:03:43;;;;;;;15.20;10.60;;;;;;;;;;5055618;28;20193;-74
2023/09/13 18:06:15;;;;;;;12.73;10.47;;;;;;;;;;5039283;28;20537;-74
2023/09/13 18:08:42;;;;;;;17.27;12.50;;;;;;;;;;5054744;28;20244;-74
2023/09/13 18:15:09;;;;;;;16.50;13.20;;;;;;;;;;5056544;28;20586;-75
2023/09/13 18:17:40;;;;;;;17.43;15.20;;;;;;;;;;5074113;28;20182;-74
2023/09/13 18:20:24;;;;;;;19.77;15.50;;;;;;;;;;5038836;28;20680;-74
2023/09/13 18:22:50;;;;;;;18.40;16.23;;;;;;;;;;5058626;28;20548;-74
2023/09/13 18:25:17;;;;;;;21.20;16.37;;;;;;;;;;5041108;28;20186;-74
2023/09/13 18:27:44;;;;;;;21.20;16.97;;;;;;;;;;5057473;28;20196;-74
2023/09/13 18:30:11;;;;;;;17.27;14.57;;;;;;;;;;5057123;28;20193;-74
2023/09/13 18:32:38;;;;;;;15.97;13.83;;;;;;;;;;5074117;28;20186;-75
2023/09/13 18:35:05;;;;;;;14.57;12.77;;;;;;;;;;5075691;28;20213;-75
2023/09/13 18:41:34;;;;;;;10.10;8.23;;;;;;;;;;5074941;28;20525;-74
2023/09/13 18:44:03;;;;;;;8.57;7.67;;;;;;;;;;5057798;28;20251;-75
2023/09/13 18:50:23;;;;;;;3.50;2.90;;;;;;;;;;5074354;28;20525;-74
2023/09/13 18:57:01;;;;;;;2.60;2.00;;;;;;;;;;5074657;28;20213;-74
2023/09/13 18:59:45;;;;;;;1.40;1.30;;;;;;;;;;5074862;28;20157;-75
2023/09/13 19:02:13;;;;;;;2.23;1.60;;;;;;;;;;5074253;28;20182;-74
2023/09/13 19:04:41;;;;;;;2.13;1.40;;;;;;;;;;5055708;28;20299;-75
2023/09/13 19:15:08;;;;;;;2.73;1.70;;;;;;;;;;5054026;28;20194;-71
2023/09/13 19:17:40;;;;;;;2.73;1.60;;;;;;;;;;5022500;28;20194;-72
2023/09/13 19:20:07;;;;;;;3.37;1.90;;;;;;;;;;5053485;28;20198;-72
2023/09/13 19:22:36;;;;;;;2.17;1.57;;;;;;;;;;5033929;28;20183;-76
2023/09/13 19:29:03;;;;;;;2.73;1.33;;;;;;;;;;5034132;28;20585;-76
2023/09/13 19:31:30;;;;;;;4.07;1.37;;;;;;;;;;5034181;28;20665;-75
2023/09/13 19:33:58;;;;;;;2.73;1.50;;;;;;;;;;5034781;28;20188;-76
2023/09/13 19:36:25;;;;;;;1.73;1.00;;;;;;;;;;5034209;28;20203;-75
2023/09/13 19:38:52;;;;;;;2.20;1.40;;;;;;;;;;5032843;28;20191;-77
2023/09/13 19:44:47;;;;;;;3.10;1.13;;;;;;;;;;5017328;28;20175;-75
2023/09/13 19:47:32;;;;;;;2.37;1.30;;;;;;;;;;5023948;28;20203;-74
2023/09/13 19:50:00;;;;;;;4.10;1.30;;;;;;;;;;5034089;28;20202;-76
2023/09/13 19:56:29;;;;;;;2.47;1.20;;;;;;;;;;5035844;28;20191;-75
2023/09/13 20:03:21;;;;;;;2.80;1.40;;;;;;;;;;5036223;28;20229;-75
2023/09/13 20:05:49;;;;;;;1.83;1.00;;;;;;;;;;5053975;28;20166;-76
2023/09/13 20:08:18;;;;;;;2.10;1.53;;;;;;;;;;5054184;28;20218;-76